createdAt,value
2018-03-27T00:00:07.936Z,1012.62
2018-03-27T00:01:07.898Z,1012.65
2018-03-27T00:02:07.860Z,1012.61
2018-03-27T00:03:07.799Z,1012.65
2018-03-27T00:04:07.754Z,1012.64
2018-03-27T00:05:07.705Z,1012.74
2018-03-27T00:06:07.658Z,1012.68
2018-03-27T00:07:07.610Z,1012.70
2018-03-27T00:08:07.566Z,1012.72
2018-03-27T00:09:07.517Z,1012.71
2018-03-27T00:10:07.469Z,1012.71
2018-03-27T00:11:07.426Z,1012.71
2018-03-27T00:12:07.383Z,1012.71
2018-03-27T00:13:07.328Z,1012.72
2018-03-27T00:14:07.282Z,1012.73
2018-03-27T00:15:07.240Z,1012.73
2018-03-27T00:16:07.195Z,1012.72
2018-03-27T00:17:07.144Z,1012.72
2018-03-27T00:18:07.097Z,1012.69
2018-03-27T00:19:07.048Z,1012.72
2018-03-27T00:20:07.008Z,1012.71
2018-03-27T00:21:06.962Z,1012.71
2018-03-27T00:22:06.908Z,1012.71
2018-03-27T00:23:06.861Z,1012.68
2018-03-27T00:24:06.814Z,1012.69
2018-03-27T00:25:06.771Z,1012.66
2018-03-27T00:26:06.730Z,1012.65
2018-03-27T00:27:06.673Z,1012.69
2018-03-27T00:28:06.631Z,1012.69
2018-03-27T00:29:06.579Z,1012.70
2018-03-27T00:30:06.534Z,1012.69
2018-03-27T00:31:06.494Z,1012.67
2018-03-27T00:32:06.560Z,1012.68
2018-03-27T00:33:06.391Z,1012.68
2018-03-27T00:34:06.347Z,1012.64
2018-03-27T00:35:06.306Z,1012.62
2018-03-27T00:36:06.254Z,1012.63
2018-03-27T00:37:06.204Z,1012.59
2018-03-27T00:38:06.158Z,1012.62
2018-03-27T00:39:06.109Z,1012.61
2018-03-27T00:40:06.060Z,1012.57
2018-03-27T00:41:06.016Z,1012.59
2018-03-27T00:42:05.975Z,1012.57
2018-03-27T00:43:05.920Z,1012.63
2018-03-27T00:44:05.872Z,1012.59
2018-03-27T00:45:05.829Z,1012.57
2018-03-27T00:47:05.754Z,1012.59
2018-03-27T00:48:05.692Z,1012.56
2018-03-27T00:49:05.637Z,1012.59
2018-03-27T00:50:05.590Z,1012.59
2018-03-27T00:51:05.549Z,1012.63
2018-03-27T00:52:05.495Z,1012.59
2018-03-27T00:53:05.448Z,1012.59
2018-03-27T00:54:05.403Z,1012.57
2018-03-27T00:55:05.355Z,1012.56
2018-03-27T00:56:05.307Z,1012.60
2018-03-27T00:57:05.261Z,1012.57
2018-03-27T00:58:05.217Z,1012.57
2018-03-27T00:59:05.167Z,1012.58
2018-03-27T01:00:05.118Z,1012.59
2018-03-27T01:01:05.072Z,1012.56
2018-03-27T01:02:05.027Z,1012.57
2018-03-27T01:03:04.983Z,1012.56
2018-03-27T01:04:04.930Z,1012.56
2018-03-27T01:05:04.892Z,1012.57
2018-03-27T01:06:04.838Z,1012.57
2018-03-27T01:07:04.793Z,1012.55
2018-03-27T01:08:04.744Z,1012.57
2018-03-27T01:09:04.698Z,1012.56
2018-03-27T01:10:04.653Z,1012.56
2018-03-27T01:11:04.600Z,1012.60
2018-03-27T01:12:04.556Z,1012.57
2018-03-27T01:13:04.505Z,1012.59
2018-03-27T01:14:04.459Z,1012.60
2018-03-27T01:15:04.419Z,1012.58
2018-03-27T01:16:04.362Z,1012.58
2018-03-27T01:17:04.320Z,1012.56
2018-03-27T01:18:04.268Z,1012.55
2018-03-27T01:19:04.223Z,1012.55
2018-03-27T01:20:04.175Z,1012.56
2018-03-27T01:21:04.129Z,1012.56
2018-03-27T01:22:04.089Z,1012.52
2018-03-27T01:23:04.036Z,1012.57
2018-03-27T01:24:03.987Z,1012.49
2018-03-27T01:25:03.940Z,1012.55
2018-03-27T01:26:03.892Z,1012.54
2018-03-27T01:27:03.846Z,1012.56
2018-03-27T01:28:03.798Z,1012.53
2018-03-27T01:29:03.751Z,1012.52
2018-03-27T01:30:03.702Z,1012.54
2018-03-27T01:31:03.656Z,1012.49
2018-03-27T01:32:03.605Z,1012.49
2018-03-27T01:33:03.559Z,1012.43
2018-03-27T01:34:03.515Z,1012.46
2018-03-27T01:35:03.464Z,1012.46
2018-03-27T01:36:03.416Z,1012.42
2018-03-27T01:37:03.370Z,1012.45
2018-03-27T01:38:03.336Z,1012.43
2018-03-27T01:39:03.273Z,1012.44
2018-03-27T01:40:03.228Z,1012.44
2018-03-27T01:41:03.177Z,1012.40
2018-03-27T01:42:03.132Z,1012.43
2018-03-27T01:43:03.082Z,1012.47
2018-03-27T01:44:03.041Z,1012.40
2018-03-27T01:45:02.989Z,1012.41
2018-03-27T01:46:02.941Z,1012.42
2018-03-27T01:47:02.893Z,1012.40
2018-03-27T01:48:02.857Z,1012.37
2018-03-27T01:49:02.803Z,1012.40
2018-03-27T01:50:02.749Z,1012.37
2018-03-27T01:51:02.708Z,1012.38
2018-03-27T01:52:02.658Z,1012.40
2018-03-27T01:53:02.609Z,1012.38
2018-03-27T01:54:02.559Z,1012.34
2018-03-27T01:55:02.518Z,1012.31
2018-03-27T01:56:02.465Z,1012.30
2018-03-27T01:57:02.417Z,1012.28
2018-03-27T01:58:02.371Z,1012.28
2018-03-27T01:59:02.325Z,1012.26
2018-03-27T02:00:02.274Z,1012.26
2018-03-27T02:01:02.231Z,1012.25
2018-03-27T02:02:02.194Z,1012.23
2018-03-27T02:03:02.135Z,1012.25
2018-03-27T02:04:02.088Z,1012.24
2018-03-27T02:05:02.038Z,1012.22
2018-03-27T02:06:01.994Z,1012.22
2018-03-27T02:07:01.948Z,1012.18
2018-03-27T02:08:01.897Z,1012.20
2018-03-27T02:09:01.846Z,1012.18
2018-03-27T02:10:01.798Z,1012.18
2018-03-27T02:11:01.751Z,1012.21
2018-03-27T02:12:01.708Z,1012.19
2018-03-27T02:13:01.662Z,1012.20
2018-03-27T02:14:01.619Z,1012.16
2018-03-27T02:15:01.570Z,1012.18
2018-03-27T02:16:01.514Z,1012.18
2018-03-27T02:17:01.471Z,1012.16
2018-03-27T02:18:01.418Z,1012.16
2018-03-27T02:19:01.369Z,1012.14
2018-03-27T02:20:01.326Z,1012.14
2018-03-27T02:21:01.276Z,1012.11
2018-03-27T02:22:01.228Z,1012.11
2018-03-27T02:23:01.181Z,1012.08
2018-03-27T02:24:01.132Z,1012.14
2018-03-27T02:25:01.085Z,1012.10
2018-03-27T02:26:01.036Z,1012.10
2018-03-27T02:27:00.990Z,1012.15
2018-03-27T02:28:00.942Z,1012.10
2018-03-27T02:29:00.893Z,1012.14
2018-03-27T02:30:00.847Z,1012.09
2018-03-27T02:31:00.798Z,1012.10
2018-03-27T02:32:00.751Z,1012.10
2018-03-27T02:33:00.703Z,1012.09
2018-03-27T02:34:00.654Z,1012.05
2018-03-27T02:35:00.610Z,1012.07
2018-03-27T02:36:00.560Z,1012.04
2018-03-27T02:37:00.511Z,1012.04
2018-03-27T02:38:00.463Z,1012.06
2018-03-27T02:39:00.419Z,1012.03
2018-03-27T02:40:00.370Z,1012.04
2018-03-27T02:41:00.320Z,1012.03
2018-03-27T02:42:00.276Z,1012.05
2018-03-27T02:43:00.228Z,1012.01
2018-03-27T02:44:00.183Z,1011.98
2018-03-27T02:45:00.129Z,1011.99
2018-03-27T02:46:00.085Z,1012.00
2018-03-27T02:47:00.036Z,1011.93
2018-03-27T02:47:59.989Z,1011.97
2018-03-27T02:48:59.938Z,1011.98
2018-03-27T02:49:59.893Z,1011.87
2018-03-27T02:50:59.842Z,1011.93
2018-03-27T02:51:59.797Z,1011.95
2018-03-27T02:52:59.748Z,1011.93
2018-03-27T02:53:59.704Z,1011.92
2018-03-27T02:54:59.650Z,1011.93
2018-03-27T02:55:59.603Z,1011.93
2018-03-27T02:56:59.554Z,1011.92
2018-03-27T02:57:59.511Z,1011.91
2018-03-27T02:58:59.462Z,1011.94
2018-03-27T02:59:59.410Z,1011.97
2018-03-27T03:00:59.364Z,1011.92
2018-03-27T03:01:59.316Z,1011.94
2018-03-27T03:02:59.267Z,1011.97
2018-03-27T03:03:59.222Z,1011.95
2018-03-27T03:04:59.174Z,1011.92
2018-03-27T03:05:59.131Z,1011.97
2018-03-27T03:06:59.109Z,1011.93
2018-03-27T03:07:59.031Z,1011.96
2018-03-27T03:08:58.979Z,1011.93
2018-03-27T03:09:58.933Z,1011.92
2018-03-27T03:10:58.886Z,1011.94
2018-03-27T03:11:58.838Z,1011.95
2018-03-27T03:12:58.788Z,1011.98
2018-03-27T03:13:58.743Z,1011.95
2018-03-27T03:14:58.692Z,1011.97
2018-03-27T03:15:58.649Z,1011.99
2018-03-27T03:16:58.601Z,1012.03
2018-03-27T03:17:58.549Z,1012.05
2018-03-27T03:18:58.561Z,1012.06
2018-03-27T03:19:58.452Z,1012.07
2018-03-27T03:20:58.404Z,1012.06
2018-03-27T03:21:58.358Z,1012.04
2018-03-27T03:22:58.310Z,1012.04
2018-03-27T03:23:58.260Z,1012.01
2018-03-27T03:24:58.212Z,1012.01
2018-03-27T03:25:58.164Z,1011.99
2018-03-27T03:26:58.113Z,1012.02
2018-03-27T03:27:58.070Z,1012.01
2018-03-27T03:28:58.020Z,1012.00
2018-03-27T03:29:57.973Z,1012.04
2018-03-27T03:30:57.924Z,1012.07
2018-03-27T03:31:57.873Z,1012.03
2018-03-27T03:32:57.826Z,1012.07
2018-03-27T03:33:57.821Z,1012.06
2018-03-27T03:34:57.733Z,1012.05
2018-03-27T03:35:57.680Z,1012.05
2018-03-27T03:36:57.632Z,1012.02
2018-03-27T03:37:57.587Z,1012.04
2018-03-27T03:38:57.536Z,1012.03
2018-03-27T03:39:57.489Z,1012.05
2018-03-27T03:40:57.444Z,1012.04
2018-03-27T03:41:57.393Z,1012.05
2018-03-27T03:42:57.341Z,1012.03
2018-03-27T03:43:57.296Z,1012.00
2018-03-27T03:44:57.250Z,1012.02
2018-03-27T03:45:57.197Z,1012.03
2018-03-27T03:46:57.156Z,1012.03
2018-03-27T03:47:57.104Z,1012.05
2018-03-27T03:48:57.055Z,1012.04
2018-03-27T03:49:57.007Z,1012.04
2018-03-27T03:50:56.961Z,1012.04
2018-03-27T03:51:56.907Z,1012.04
2018-03-27T03:52:56.865Z,1012.03
2018-03-27T03:53:56.812Z,1012.02
2018-03-27T03:54:56.768Z,1012.01
2018-03-27T03:55:56.715Z,1012.02
2018-03-27T03:56:56.667Z,1012.03
2018-03-27T03:57:56.622Z,1012.03
2018-03-27T03:58:56.573Z,1011.96
2018-03-27T03:59:56.538Z,1011.94
2018-03-27T04:00:56.531Z,1011.92
2018-03-27T04:01:56.437Z,1011.92
2018-03-27T04:02:56.402Z,1011.92
2018-03-27T04:03:56.362Z,1011.92
2018-03-27T04:04:56.279Z,1011.94
2018-03-27T04:05:56.231Z,1011.91
2018-03-27T04:06:56.183Z,1011.90
2018-03-27T04:07:56.133Z,1011.90
2018-03-27T04:08:56.085Z,1011.93
2018-03-27T04:09:56.038Z,1011.88
2018-03-27T04:10:55.988Z,1011.91
2018-03-27T04:11:55.939Z,1011.88
2018-03-27T04:12:55.889Z,1011.87
2018-03-27T04:13:55.845Z,1011.86
2018-03-27T04:14:55.797Z,1011.90
2018-03-27T04:15:55.754Z,1011.88
2018-03-27T04:16:55.697Z,1011.86
2018-03-27T04:17:55.661Z,1011.88
2018-03-27T04:18:55.611Z,1011.90
2018-03-27T04:19:55.559Z,1011.90
2018-03-27T04:20:55.501Z,1011.91
2018-03-27T04:21:55.452Z,1011.93
2018-03-27T04:22:55.402Z,1011.88
2018-03-27T04:23:55.357Z,1011.85
2018-03-27T04:24:55.309Z,1011.86
2018-03-27T04:25:55.263Z,1011.84
2018-03-27T04:26:55.211Z,1011.81
2018-03-27T04:27:55.165Z,1011.78
2018-03-27T04:28:55.119Z,1011.79
2018-03-27T04:29:55.064Z,1011.77
2018-03-27T04:30:55.015Z,1011.76
2018-03-27T04:31:54.971Z,1011.74
2018-03-27T04:32:54.918Z,1011.71
2018-03-27T04:33:54.871Z,1011.67
2018-03-27T04:34:54.823Z,1011.71
2018-03-27T04:35:54.771Z,1011.70
2018-03-27T04:36:54.724Z,1011.70
2018-03-27T04:37:54.682Z,1011.66
2018-03-27T04:38:54.626Z,1011.65
2018-03-27T04:39:54.585Z,1011.62
2018-03-27T04:40:54.533Z,1011.63
2018-03-27T04:41:54.479Z,1011.60
2018-03-27T04:42:54.431Z,1011.61
2018-03-27T04:43:54.382Z,1011.58
2018-03-27T04:44:54.333Z,1011.59
2018-03-27T04:45:54.284Z,1011.58
2018-03-27T04:46:54.235Z,1011.59
2018-03-27T04:47:54.194Z,1011.59
2018-03-27T04:48:54.136Z,1011.61
2018-03-27T04:49:54.091Z,1011.59
2018-03-27T04:50:54.040Z,1011.55
2018-03-27T04:51:53.991Z,1011.60
2018-03-27T04:52:53.943Z,1011.57
2018-03-27T04:53:53.897Z,1011.58
2018-03-27T04:54:53.845Z,1011.55
2018-03-27T04:55:53.796Z,1011.58
2018-03-27T04:56:53.747Z,1011.55
2018-03-27T04:57:53.700Z,1011.52
2018-03-27T04:58:53.651Z,1011.53
2018-03-27T04:59:53.601Z,1011.49
2018-03-27T05:00:53.550Z,1011.48
2018-03-27T05:01:53.505Z,1011.48
2018-03-27T05:02:53.455Z,1011.52
2018-03-27T05:03:53.406Z,1011.49
2018-03-27T05:04:53.360Z,1011.47
2018-03-27T05:05:53.313Z,1011.50
2018-03-27T05:06:53.260Z,1011.46
2018-03-27T05:07:53.211Z,1011.44
2018-03-27T05:08:53.164Z,1011.44
2018-03-27T05:09:53.117Z,1011.48
2018-03-27T05:10:53.072Z,1011.40
2018-03-27T05:11:53.077Z,1011.39
2018-03-27T05:12:52.967Z,1011.40
2018-03-27T05:13:52.921Z,1011.39
2018-03-27T05:14:52.872Z,1011.36
2018-03-27T05:15:52.819Z,1011.28
2018-03-27T05:16:52.772Z,1011.35
2018-03-27T05:17:52.722Z,1011.36
2018-03-27T05:18:52.676Z,1011.36
2018-03-27T05:19:52.625Z,1011.33
2018-03-27T05:20:52.615Z,1011.31
2018-03-27T05:21:52.542Z,1011.31
2018-03-27T05:22:52.485Z,1011.28
2018-03-27T05:23:52.430Z,1011.27
2018-03-27T05:24:52.383Z,1011.26
2018-03-27T05:25:52.339Z,1011.28
2018-03-27T05:26:52.286Z,1011.33
2018-03-27T05:27:52.234Z,1011.32
2018-03-27T05:28:52.187Z,1011.32
2018-03-27T05:29:52.139Z,1011.31
2018-03-27T05:30:52.087Z,1011.29
2018-03-27T05:31:52.043Z,1011.28
2018-03-27T05:32:52.037Z,1011.27
2018-03-27T05:33:51.940Z,1011.22
2018-03-27T05:34:51.896Z,1011.24
2018-03-27T05:35:51.848Z,1011.23
2018-03-27T05:36:51.799Z,1011.26
2018-03-27T05:37:51.775Z,1011.21
2018-03-27T05:38:51.704Z,1011.22
2018-03-27T05:39:51.655Z,1011.18
2018-03-27T05:40:51.602Z,1011.19
2018-03-27T05:41:51.550Z,1011.21
2018-03-27T05:42:51.503Z,1011.21
2018-03-27T05:43:51.456Z,1011.21
2018-03-27T05:44:51.403Z,1011.16
2018-03-27T05:45:51.356Z,1011.19
2018-03-27T05:46:51.304Z,1011.16
2018-03-27T05:47:51.255Z,1011.14
2018-03-27T05:48:51.210Z,1011.14
2018-03-27T05:49:51.162Z,1011.22
2018-03-27T05:50:51.111Z,1011.16
2018-03-27T05:51:51.114Z,1011.17
2018-03-27T05:52:51.036Z,1011.22
2018-03-27T05:53:50.963Z,1011.22
2018-03-27T05:54:50.915Z,1011.19
2018-03-27T05:55:50.942Z,1011.21
2018-03-27T05:56:50.822Z,1011.16
2018-03-27T05:57:50.770Z,1011.16
2018-03-27T05:58:50.722Z,1011.13
2018-03-27T05:59:50.674Z,1011.15
2018-03-27T06:00:50.625Z,1011.01
2018-03-27T06:01:50.573Z,1011.11
2018-03-27T06:02:50.528Z,1011.08
2018-03-27T06:03:50.477Z,1011.10
2018-03-27T06:04:50.438Z,1011.10
2018-03-27T06:05:50.382Z,1011.06
2018-03-27T06:06:50.332Z,1011.08
2018-03-27T06:07:50.283Z,1011.12
2018-03-27T06:08:50.235Z,1011.08
2018-03-27T06:09:50.186Z,1011.12
2018-03-27T06:10:50.141Z,1011.12
2018-03-27T06:11:50.088Z,1011.14
2018-03-27T06:12:50.041Z,1011.11
2018-03-27T06:13:49.991Z,1011.15
2018-03-27T06:14:49.944Z,1011.14
2018-03-27T06:15:49.898Z,1011.14
2018-03-27T06:16:49.850Z,1011.15
2018-03-27T06:17:49.802Z,1011.15
2018-03-27T06:18:49.752Z,1011.12
2018-03-27T06:19:49.702Z,1011.14
2018-03-27T06:20:49.666Z,1011.15
2018-03-27T06:21:49.620Z,1011.14
2018-03-27T06:22:49.563Z,1011.15
2018-03-27T06:23:49.513Z,1011.13
2018-03-27T06:24:49.465Z,1011.11
2018-03-27T06:25:49.414Z,1011.10
2018-03-27T06:26:49.368Z,1011.12
2018-03-27T06:27:49.318Z,1011.09
2018-03-27T06:28:49.272Z,1011.10
2018-03-27T06:29:49.224Z,1011.05
2018-03-27T06:30:49.181Z,1011.02
2018-03-27T06:31:49.125Z,1010.97
2018-03-27T06:32:49.092Z,1011.00
2018-03-27T06:33:49.047Z,1010.94
2018-03-27T06:34:48.984Z,1010.95
2018-03-27T06:35:48.935Z,1010.93
2018-03-27T06:36:48.886Z,1010.91
2018-03-27T06:37:48.842Z,1010.86
2018-03-27T06:38:48.791Z,1010.89
2018-03-27T06:39:48.743Z,1010.89
2018-03-27T06:40:48.695Z,1010.88
2018-03-27T06:41:48.649Z,1010.93
2018-03-27T06:42:48.601Z,1010.92
2018-03-27T06:43:48.551Z,1010.96
2018-03-27T06:44:48.506Z,1010.90
2018-03-27T06:45:48.462Z,1010.97
2018-03-27T06:46:48.410Z,1010.97
2018-03-27T06:47:48.427Z,1010.96
2018-03-27T06:48:48.315Z,1010.99
2018-03-27T06:49:48.265Z,1010.95
2018-03-27T06:50:48.218Z,1010.94
2018-03-27T06:51:48.172Z,1010.97
2018-03-27T06:52:48.133Z,1010.90
2018-03-27T06:53:48.076Z,1010.89
2018-03-27T06:54:48.032Z,1010.90
2018-03-27T06:55:47.983Z,1010.88
2018-03-27T06:56:47.938Z,1010.87
2018-03-27T06:57:47.893Z,1010.85
2018-03-27T06:58:47.842Z,1010.88
2018-03-27T06:59:47.794Z,1010.84
2018-03-27T07:00:47.747Z,1010.87
2018-03-27T07:01:47.699Z,1010.84
2018-03-27T07:02:47.681Z,1010.83
2018-03-27T07:03:47.613Z,1010.83
2018-03-27T07:04:47.555Z,1010.83
2018-03-27T07:05:47.509Z,1010.88
2018-03-27T07:06:47.464Z,1010.85
2018-03-27T07:07:47.413Z,1010.84
2018-03-27T07:08:47.365Z,1010.83
2018-03-27T07:09:47.321Z,1010.86
2018-03-27T07:10:47.298Z,1010.81
2018-03-27T07:11:47.237Z,1010.85
2018-03-27T07:12:47.198Z,1010.83
2018-03-27T07:13:47.132Z,1010.82
2018-03-27T07:14:47.092Z,1010.84
2018-03-27T07:15:47.036Z,1010.78
2018-03-27T07:16:47.029Z,1010.78
2018-03-27T07:17:46.952Z,1010.76
2018-03-27T07:18:46.896Z,1010.73
2018-03-27T07:19:46.855Z,1010.75
2018-03-27T07:20:46.846Z,1010.75
2018-03-27T07:21:46.757Z,1010.71
2018-03-27T07:22:46.714Z,1010.71
2018-03-27T07:23:46.662Z,1010.68
2018-03-27T07:24:46.616Z,1010.66
2018-03-27T07:25:46.572Z,1010.71
2018-03-27T07:26:46.528Z,1010.71
2018-03-27T07:27:46.478Z,1010.67
2018-03-27T07:28:46.436Z,1010.65
2018-03-27T07:29:46.390Z,1010.70
2018-03-27T07:30:46.343Z,1010.65
2018-03-27T07:31:46.300Z,1010.71
2018-03-27T07:32:46.255Z,1010.69
2018-03-27T07:33:46.209Z,1010.74
2018-03-27T07:34:46.170Z,1010.68
2018-03-27T07:35:46.126Z,1010.71
2018-03-27T07:36:46.078Z,1010.67
2018-03-27T07:37:46.033Z,1010.65
2018-03-27T07:38:45.990Z,1010.67
2018-03-27T07:39:45.950Z,1010.64
2018-03-27T07:40:45.905Z,1010.62
2018-03-27T07:41:45.866Z,1010.63
2018-03-27T07:42:45.819Z,1010.67
2018-03-27T07:43:45.776Z,1010.62
2018-03-27T07:44:45.735Z,1010.62
2018-03-27T07:45:45.692Z,1010.58
2018-03-27T07:46:45.651Z,1010.57
2018-03-27T07:47:45.606Z,1010.52
2018-03-27T07:48:45.566Z,1010.53
2018-03-27T07:49:45.522Z,1010.50
2018-03-27T07:50:45.487Z,1010.50
2018-03-27T07:51:45.440Z,1010.48
2018-03-27T07:52:45.396Z,1010.47
2018-03-27T07:53:45.356Z,1010.48
2018-03-27T07:54:45.318Z,1010.45
2018-03-27T07:55:45.277Z,1010.42
2018-03-27T07:56:45.233Z,1010.46
2018-03-27T07:57:45.193Z,1010.42
2018-03-27T07:58:45.150Z,1010.41
2018-03-27T07:59:45.108Z,1010.39
2018-03-27T08:00:45.069Z,1010.36
2018-03-27T08:01:45.027Z,1010.39
2018-03-27T08:02:44.988Z,1010.39
2018-03-27T08:03:44.957Z,1010.35
2018-03-27T08:04:44.906Z,1010.38
2018-03-27T08:05:44.867Z,1010.30
2018-03-27T08:06:44.830Z,1010.31
2018-03-27T08:07:44.785Z,1010.33
2018-03-27T08:08:44.748Z,1010.30
2018-03-27T08:09:44.709Z,1010.27
2018-03-27T08:10:44.681Z,1010.26
2018-03-27T08:11:44.633Z,1010.26
2018-03-27T08:12:44.587Z,1010.30
2018-03-27T08:13:44.551Z,1010.31
2018-03-27T08:14:44.509Z,1010.21
2018-03-27T08:15:44.472Z,1010.15
2018-03-27T08:16:44.433Z,1010.18
2018-03-27T08:17:44.393Z,1010.21
2018-03-27T08:18:44.356Z,1010.19
2018-03-27T08:19:44.313Z,1010.17
2018-03-27T08:20:44.275Z,1010.19
2018-03-27T08:21:44.235Z,1010.13
2018-03-27T08:22:44.200Z,1010.15
2018-03-27T08:23:44.162Z,1010.04
2018-03-27T08:24:44.122Z,1010.12
2018-03-27T08:25:44.086Z,1010.11
2018-03-27T08:26:44.046Z,1010.08
2018-03-27T08:27:44.004Z,1010.08
2018-03-27T08:28:43.965Z,1010.09
2018-03-27T08:29:43.941Z,1010.04
2018-03-27T08:30:43.898Z,1010.09
2018-03-27T08:31:43.856Z,1010.11
2018-03-27T08:32:43.812Z,1010.04
2018-03-27T08:33:43.778Z,1010.10
2018-03-27T08:34:43.736Z,1010.08
2018-03-27T08:35:43.697Z,1010.05
2018-03-27T08:36:43.665Z,1010.12
2018-03-27T08:37:43.627Z,1010.04
2018-03-27T08:38:43.588Z,1010.02
2018-03-27T08:39:43.545Z,1010.02
2018-03-27T08:40:43.519Z,1009.98
2018-03-27T08:41:43.473Z,1010.00
2018-03-27T08:42:43.438Z,1009.99
2018-03-27T08:43:43.395Z,1010.00
2018-03-27T08:44:43.358Z,1009.93
2018-03-27T08:45:43.319Z,1009.97
2018-03-27T08:46:43.281Z,1009.89
2018-03-27T08:47:43.244Z,1009.89
2018-03-27T08:48:43.211Z,1009.85
2018-03-27T08:49:43.170Z,1009.84
2018-03-27T08:50:43.132Z,1009.85
2018-03-27T08:51:43.305Z,1009.80
2018-03-27T08:52:43.058Z,1009.79
2018-03-27T08:53:43.023Z,1009.77
2018-03-27T08:54:42.996Z,1009.77
2018-03-27T08:55:42.945Z,1009.80
2018-03-27T08:56:42.904Z,1009.77
2018-03-27T08:57:42.868Z,1009.74
2018-03-27T08:58:42.829Z,1009.77
2018-03-27T08:59:42.800Z,1009.77
2018-03-27T09:00:42.783Z,1009.84
2018-03-27T09:01:42.720Z,1009.83
2018-03-27T09:02:42.678Z,1009.83
2018-03-27T09:03:42.694Z,1009.75
2018-03-27T09:04:42.602Z,1009.81
2018-03-27T09:05:42.562Z,1009.75
2018-03-27T09:06:42.526Z,1009.73
2018-03-27T09:07:42.493Z,1009.72
2018-03-27T09:08:42.455Z,1009.78
2018-03-27T09:09:42.414Z,1009.76
2018-03-27T09:10:42.377Z,1009.75
2018-03-27T09:11:42.338Z,1009.76
2018-03-27T09:12:42.300Z,1009.74
2018-03-27T09:13:42.262Z,1009.75
2018-03-27T09:14:42.227Z,1009.68
2018-03-27T09:15:42.187Z,1009.74
2018-03-27T09:16:42.151Z,1009.69
2018-03-27T09:17:42.110Z,1009.71
2018-03-27T09:18:42.070Z,1009.69
2018-03-27T09:19:42.032Z,1009.69
2018-03-27T09:20:41.996Z,1009.66
2018-03-27T09:21:41.958Z,1009.70
2018-03-27T09:22:41.918Z,1009.61
2018-03-27T09:23:41.878Z,1009.66
2018-03-27T09:24:41.850Z,1009.62
2018-03-27T09:25:41.802Z,1009.65
2018-03-27T09:26:41.762Z,1009.63
2018-03-27T09:27:41.720Z,1009.69
2018-03-27T09:28:41.718Z,1009.60
2018-03-27T09:29:41.649Z,1009.67
2018-03-27T09:30:41.603Z,1009.63
2018-03-27T09:31:41.560Z,1009.63
2018-03-27T09:32:41.523Z,1009.67
2018-03-27T09:33:41.483Z,1009.60
2018-03-27T09:34:41.442Z,1009.62
2018-03-27T09:35:41.407Z,1009.58
2018-03-27T09:36:41.365Z,1009.52
2018-03-27T09:37:41.323Z,1009.54
2018-03-27T09:38:41.289Z,1009.57
2018-03-27T09:39:41.246Z,1009.59
2018-03-27T09:40:41.199Z,1009.53
2018-03-27T09:41:41.158Z,1009.52
2018-03-27T09:42:41.122Z,1009.50
2018-03-27T09:43:41.100Z,1009.49
2018-03-27T09:44:41.036Z,1009.43
2018-03-27T09:45:41.002Z,1009.40
2018-03-27T09:46:40.953Z,1009.36
2018-03-27T09:47:40.912Z,1009.36
2018-03-27T09:48:40.871Z,1009.33
2018-03-27T09:49:40.831Z,1009.28
2018-03-27T09:50:40.791Z,1009.32
2018-03-27T09:51:40.748Z,1009.28
2018-03-27T09:52:40.711Z,1009.28
2018-03-27T09:53:40.687Z,1009.24
2018-03-27T09:54:40.626Z,1009.29
2018-03-27T09:55:40.587Z,1009.29
2018-03-27T09:56:40.544Z,1009.20
2018-03-27T09:57:40.511Z,1009.20
2018-03-27T09:58:40.460Z,1009.24
2018-03-27T09:59:40.420Z,1009.16
2018-03-27T10:00:40.378Z,1009.17
2018-03-27T10:01:40.335Z,1009.12
2018-03-27T10:02:40.293Z,1009.10
2018-03-27T10:03:40.253Z,1009.09
2018-03-27T10:04:40.212Z,1009.14
2018-03-27T10:05:40.171Z,1009.12
2018-03-27T10:06:40.130Z,1009.04
2018-03-27T10:07:40.086Z,1009.12
2018-03-27T10:08:40.045Z,1009.14
2018-03-27T10:09:40.016Z,1009.07
2018-03-27T10:10:39.964Z,1009.06
2018-03-27T10:11:39.921Z,1009.08
2018-03-27T10:12:39.883Z,1009.05
2018-03-27T10:13:39.843Z,1008.99
2018-03-27T10:14:39.801Z,1009.02
2018-03-27T10:15:39.757Z,1008.98
2018-03-27T10:16:39.722Z,1009.06
2018-03-27T10:17:39.675Z,1008.97
2018-03-27T10:18:39.636Z,1009.03
2018-03-27T10:19:39.595Z,1009.04
2018-03-27T10:20:39.557Z,1008.99
2018-03-27T10:21:39.513Z,1009.02
2018-03-27T10:22:39.472Z,1008.95
2018-03-27T10:23:39.431Z,1008.98
2018-03-27T10:24:39.389Z,1008.96
2018-03-27T10:25:39.350Z,1008.98
2018-03-27T10:26:39.305Z,1008.95
2018-03-27T10:27:39.265Z,1008.96
2018-03-27T10:28:39.225Z,1008.91
2018-03-27T10:29:39.192Z,1008.94
2018-03-27T10:30:39.145Z,1008.88
2018-03-27T10:31:39.105Z,1008.85
2018-03-27T10:32:39.060Z,1008.83
2018-03-27T10:33:39.017Z,1008.80
2018-03-27T10:34:38.976Z,1008.84
2018-03-27T10:35:38.939Z,1008.77
2018-03-27T10:36:38.894Z,1008.79
2018-03-27T10:37:38.852Z,1008.69
2018-03-27T10:38:38.812Z,1008.73
2018-03-27T10:39:38.776Z,1008.64
2018-03-27T10:40:38.732Z,1008.67
2018-03-27T10:41:38.686Z,1008.62
2018-03-27T10:42:38.649Z,1008.65
2018-03-27T10:43:38.607Z,1008.67
2018-03-27T10:44:38.560Z,1008.61
2018-03-27T10:45:38.519Z,1008.57
2018-03-27T10:46:38.478Z,1008.55
2018-03-27T10:47:38.435Z,1008.52
2018-03-27T10:48:38.394Z,1008.50
2018-03-27T10:49:38.353Z,1008.48
2018-03-27T10:50:38.317Z,1008.47
2018-03-27T10:51:38.266Z,1008.42
2018-03-27T10:52:38.224Z,1008.43
2018-03-27T10:53:38.184Z,1008.38
2018-03-27T10:54:38.140Z,1008.39
2018-03-27T10:55:38.151Z,1008.41
2018-03-27T10:56:38.056Z,1008.35
2018-03-27T10:57:38.016Z,1008.29
2018-03-27T10:58:37.972Z,1008.27
2018-03-27T10:59:37.929Z,1008.27
2018-03-27T11:00:37.889Z,1008.24
2018-03-27T11:01:37.844Z,1008.24
2018-03-27T11:02:37.801Z,1008.27
2018-03-27T11:03:37.760Z,1008.20
2018-03-27T11:04:37.718Z,1008.21
2018-03-27T11:05:37.720Z,1008.17
2018-03-27T11:06:37.635Z,1008.15
2018-03-27T11:07:37.589Z,1008.13
2018-03-27T11:08:37.550Z,1008.13
2018-03-27T11:09:37.509Z,1008.09
2018-03-27T11:10:37.465Z,1008.03
2018-03-27T11:11:37.426Z,1008.00
2018-03-27T11:12:37.379Z,1008.03
2018-03-27T11:13:37.339Z,1007.93
2018-03-27T11:14:37.296Z,1008.00
2018-03-27T11:15:37.255Z,1008.00
2018-03-27T11:16:37.217Z,1007.97
2018-03-27T11:17:37.170Z,1007.98
2018-03-27T11:18:37.130Z,1007.95
2018-03-27T11:19:37.087Z,1007.90
2018-03-27T11:20:37.047Z,1007.93
2018-03-27T11:21:37.005Z,1007.91
2018-03-27T11:22:36.970Z,1007.84
2018-03-27T11:23:36.921Z,1007.83
2018-03-27T11:24:36.882Z,1007.79
2018-03-27T11:25:36.843Z,1007.78
2018-03-27T11:26:36.798Z,1007.79
2018-03-27T11:27:36.756Z,1007.74
2018-03-27T11:28:36.765Z,1007.77
2018-03-27T11:29:36.674Z,1007.76
2018-03-27T11:30:36.637Z,1007.79
2018-03-27T11:31:36.598Z,1007.74
2018-03-27T11:32:36.550Z,1007.75
2018-03-27T11:33:36.507Z,1007.69
2018-03-27T11:34:36.468Z,1007.79
2018-03-27T11:35:36.425Z,1007.76
2018-03-27T11:36:36.386Z,1007.76
2018-03-27T11:37:36.356Z,1007.76
2018-03-27T11:38:36.308Z,1007.80
2018-03-27T11:39:36.264Z,1007.69
2018-03-27T11:40:36.217Z,1007.71
2018-03-27T11:41:36.177Z,1007.72
2018-03-27T11:42:36.137Z,1007.69
2018-03-27T11:43:36.096Z,1007.66
2018-03-27T11:44:36.053Z,1007.65
2018-03-27T11:45:36.011Z,1007.62
2018-03-27T11:46:35.972Z,1007.59
2018-03-27T11:47:35.928Z,1007.57
2018-03-27T11:48:35.886Z,1007.46
2018-03-27T11:49:35.849Z,1007.53
2018-03-27T11:50:35.808Z,1007.50
2018-03-27T11:51:35.764Z,1007.46
2018-03-27T11:52:35.773Z,1007.49
2018-03-27T11:53:35.683Z,1007.48
2018-03-27T11:54:35.643Z,1007.40
2018-03-27T11:55:35.599Z,1007.40
2018-03-27T11:56:35.559Z,1007.40
2018-03-27T11:57:35.514Z,1007.40
2018-03-27T11:58:35.475Z,1007.34
2018-03-27T11:59:35.430Z,1007.31
2018-03-27T12:00:35.389Z,1007.37
2018-03-27T12:01:35.405Z,1007.34
2018-03-27T12:02:35.309Z,1007.32
2018-03-27T12:03:35.263Z,1007.26
2018-03-27T12:04:35.226Z,1007.27
2018-03-27T12:05:35.189Z,1007.27